createdAt,value
2019-04-03T00:09:12.712Z,23.9
2019-04-03T00:19:11.921Z,23.8
2019-04-03T00:29:11.141Z,23.8
2019-04-03T00:39:10.339Z,23.8
2019-04-03T00:49:09.560Z,23.8
2019-04-03T00:59:08.761Z,23.8
2019-04-03T01:09:07.975Z,23.8
2019-04-03T01:19:07.202Z,23.8
2019-04-03T01:29:06.402Z,23.8
2019-04-03T01:39:05.602Z,23.8
2019-04-03T01:49:04.820Z,23.8
2019-04-03T01:59:04.712Z,23.8
2019-04-03T02:09:03.239Z,23.8
2019-04-03T02:19:02.436Z,23.8
2019-04-03T02:29:04.255Z,23.7
2019-04-03T02:39:00.860Z,23.7
2019-04-03T02:49:00.076Z,23.7
2019-04-03T02:58:59.273Z,23.6
2019-04-03T03:08:58.495Z,23.6
2019-04-03T03:19:00.441Z,23.6
2019-04-03T03:28:56.914Z,23.7
2019-04-03T03:38:56.303Z,23.7
2019-04-03T03:48:55.335Z,23.7
2019-04-03T03:58:54.545Z,23.7
2019-04-03T04:08:53.746Z,23.8
2019-04-03T04:18:55.400Z,23.7
2019-04-03T04:28:52.285Z,23.8
2019-04-03T04:38:51.371Z,23.8
2019-04-03T04:48:51.477Z,23.8
2019-04-03T04:58:49.799Z,23.8
2019-04-03T05:08:49.203Z,23.7
2019-04-03T05:18:48.332Z,23.7
2019-04-03T05:28:54.526Z,23.7
2019-04-03T05:38:46.631Z,23.7
2019-04-03T05:48:47.720Z,23.8
2019-04-03T05:58:55.143Z,23.8
2019-04-03T06:08:44.269Z,23.8
2019-04-03T06:18:43.477Z,23.8
2019-04-03T06:28:43.865Z,23.8
2019-04-03T06:38:42.021Z,23.8
2019-04-03T06:48:41.091Z,23.9
2019-04-03T06:58:40.891Z,23.9
2019-04-03T07:08:40.644Z,23.9
2019-04-03T07:18:38.722Z,23.9
2019-04-03T07:28:40.559Z,23.9
2019-04-03T07:38:37.141Z,24
2019-04-03T07:48:37.861Z,24
2019-04-03T07:58:35.558Z,24.1
2019-04-03T08:08:34.797Z,24.1
2019-04-03T08:18:33.974Z,24.1
2019-04-03T08:28:33.245Z,24.1
2019-04-03T08:38:32.414Z,24.1
2019-04-03T08:48:31.807Z,24.1
2019-04-03T08:58:30.807Z,24.1
2019-04-03T09:08:30.016Z,24.1
2019-04-03T09:18:30.427Z,24.2
2019-04-03T09:28:28.439Z,24.2
2019-04-03T09:38:27.659Z,24.3
2019-04-03T09:48:26.849Z,24.3
2019-04-03T09:58:26.254Z,24.3
2019-04-03T10:08:25.283Z,24.4
2019-04-03T10:18:24.480Z,24.3
2019-04-03T10:28:23.702Z,24.3
2019-04-03T10:38:22.906Z,24.3
2019-04-03T10:48:22.532Z,24.4
2019-04-03T10:58:21.336Z,24.4
2019-04-03T11:08:20.533Z,24.4
2019-04-03T11:18:21.025Z,24.4
2019-04-03T11:28:19.339Z,24.4
2019-04-03T11:38:25.889Z,24.4
2019-04-03T11:48:17.853Z,24.4
2019-04-03T11:58:17.947Z,24.3
2019-04-03T12:08:15.963Z,24.4
2019-04-03T12:18:15.046Z,24.4
2019-04-03T12:28:14.244Z,24.4
2019-04-03T12:38:13.483Z,24.4
2019-04-03T12:48:12.628Z,24.3
2019-04-03T12:58:11.840Z,24.3
2019-04-03T13:08:11.050Z,24.3
2019-04-03T13:18:10.262Z,24.3
2019-04-03T13:28:09.479Z,24.3
2019-04-03T13:38:08.684Z,24.3
2019-04-03T13:48:07.893Z,24.3
2019-04-03T13:58:07.103Z,24.3
2019-04-03T14:08:07.298Z,24.3
2019-04-03T14:18:07.348Z,24.3
2019-04-03T14:28:04.797Z,24.3
2019-04-03T14:38:04.287Z,24.3
2019-04-03T14:48:03.149Z,24.3
2019-04-03T14:58:02.360Z,24.3
2019-04-03T15:08:01.822Z,24.3
2019-04-03T15:18:01.079Z,24.3
2019-04-03T15:28:00.452Z,24.3
2019-04-03T15:37:59.578Z,24.3
2019-04-03T15:47:09.776Z,24.3
2019-04-03T15:57:07.762Z,24.3
2019-04-03T16:07:08.010Z,24.3
2019-04-03T16:17:05.826Z,24.3
2019-04-03T16:27:07.316Z,24.3
2019-04-03T16:37:04.240Z,24.2
2019-04-03T16:47:03.854Z,24.2
2019-04-03T16:57:03.656Z,24.2
2019-04-03T17:07:02.074Z,24.3
2019-04-03T17:17:01.357Z,24.2
2019-04-03T17:27:00.648Z,24.2
2019-04-03T17:37:00.353Z,24.3
2019-04-03T17:46:59.157Z,24.2
2019-04-03T17:56:58.393Z,24.3
2019-04-03T18:06:58.041Z,24.3
2019-04-03T18:16:56.826Z,24.4
2019-04-03T18:26:56.044Z,24.3
2019-04-03T18:36:55.242Z,24.3
2019-04-03T18:48:18.992Z,24.2
2019-04-03T18:58:18.174Z,24.2
2019-04-03T19:08:18.098Z,24.1
2019-04-03T19:18:19.526Z,24.1
2019-04-03T19:28:15.803Z,24.1
2019-04-03T19:38:15.022Z,24.1
2019-04-03T19:48:14.280Z,24.1
2019-04-03T19:58:13.567Z,24.1
2019-04-03T20:08:12.867Z,24.1
2019-04-03T20:18:12.149Z,24.1
2019-04-03T20:28:11.646Z,24.1
2019-04-03T20:38:10.738Z,24.1
2019-04-03T20:48:09.936Z,24
2019-04-03T20:58:09.158Z,24
2019-04-03T21:11:14.777Z,24
2019-04-03T21:21:13.989Z,23.9
2019-04-03T21:31:13.198Z,23.9
2019-04-03T21:41:12.410Z,23.9
2019-04-03T21:51:11.615Z,23.9
2019-04-03T22:01:10.832Z,23.9
2019-04-03T22:11:10.070Z,23.9
2019-04-03T22:21:09.356Z,23.9
2019-04-03T22:31:08.650Z,23.9
2019-04-03T22:41:07.932Z,23.9
2019-04-03T22:51:07.443Z,23.9
2019-04-03T23:01:06.519Z,23.8
2019-04-03T23:11:05.717Z,23.8
2019-04-03T23:21:04.937Z,23.8
2019-04-03T23:34:44.611Z,23.8
2019-04-03T23:44:43.818Z,23.8
2019-04-03T23:54:43.027Z,23.8
